Aérodrome :
LOGIN :

S'inscrire | Disclaimer

   EN    FR    IT 

 










Légende :    VFR   VFR Marginal   IFR   IFR Intensif   IFR Très Intensif
Visi : 
Plafond : 
>= 8 km
>= 3000ft
5 à 8 km
1000 à 3000 ft
1500m à 5 km
500 à 1000 ft
800 à 1500m
200 à 500 ft
< 800m
< 200 ft
Symboles :   Orages  Brouillard  Fortes neiges  Fortes précipitations  Vent > 20 kt
SIGMETs :   Divers  Orages  Givrage  Turbulence  Onde Orograph.  Cendres Volcan.






- Altitude de l'aérodrome : 352 ft
- Code IATA : ARW


LRAR - Arad International

DERNIER METAR :
  • 051630Z VRB02KT 3000 BR SCT002 M01/M01 Q1029

METARs EXPIRÉS :
  • 051600Z 01003KT 3500 BR FEW004 M01/M01 Q1029
  • 051530Z VRB02KT 3000 BR NSC M01/M01 Q1029
  • 051500Z 03003KT 3000 BR NSC M00/M00 Q1028
  • 051430Z 03004KT 5000 BR NSC 01/00 Q1028
  • 051400Z 02004KT CAVOK 02/01 Q1028

TAF TAF LRAR
Valide du 05 à 15h jusqu'au 06 à 00h UTC


051400Z 0515/0524 VRB04KT CAVOK
BECMG 0516/0518 3000 BR
BECMG 0518/0520 1500 BR BKN002
PROB40
TEMPO 0520/0524 0600 FZFG BKN001



MET'MAP, la Météo Aéronautique d'un coup d'oeil ! - Copyright ORBIFLY Décembre 2007 - Disclaimer

ORBIFLY MET'MAP TEAM :

Programmation & Développement : Alexandra Zaïnal
Sur une idée originale de : Baudouin d'Aumeries
Assistance à la programmation : Marc-Olivier Méhu
Soutien technique & logistique : Manuel Goepfert

Contact : metmap@orbifly.com




SOURCES & CREDITS :

   NOAA